• Join FlightAware (Why Join?)
  • Login
  • US Flag 
08:30PM EDT


 

Airport Tracker/Info


-or-


 

Live Flight TrackerFlight Track Log ✈ AVN11 ✈ 07-Oct-2013 ✈ YSSY / SYD - NVVV / VLI

Flight Track Log - Related Links

Times and Time Zones

All times are in EDT time to prevent confusion due to time zone crossing. See the AVN11 flight status page for this flight to view local times or setup timezone preferences in your user account.

Time Position Orientation Groundspeed Altitude Reporting Facility
EDT Latitude Longitude Course Direction KTS MPH feet Rate Location/Type
09:23PM -33.9590 151.1908 168° South 120 138  Level FlightAware ADS-B (YRAY)
09:24PM -33.9719 151.1941 168° South 147 169 400 1,500 Climbing FlightAware ADS-B (YRAY)
09:24PM -33.9786 151.1966 163° South 139 160 800 1,980 Climbing FlightAware ADS-B (YRAY)
09:24PM -33.9837 151.2027 135° Southeast 153 176 1,100 1,860 Climbing FlightAware ADS-B (YRAY)
09:24PM -33.9725 151.1943 328° Northwest 167 192 1,300 1,260 Climbing FlightAware ADS-B
09:25PM -33.9935 151.2278 127° Southeast 192 221 1,700 960 Climbing FlightAware ADS-B
09:25PM -33.9984 151.2354 128° Southeast 201 231 1,800 1,500 Climbing FlightAware ADS-B
09:25PM -33.9984 151.2354 128° Southeast 211 243 2,400 1,920 Climbing FlightAware ADS-B
09:25PM -34.0235 151.2612 140° Southeast 216 249 2,900 1,920 Climbing FlightAware ADS-B
09:25PM -34.0288 151.2691 129° Southeast 230 265 3,200 2,100 Climbing FlightAware ADS-B
09:26PM -34.0326 151.2837 107° East 239 275 3,600 1,800 Climbing FlightAware ADS-B
09:26PM -34.0319 151.2970 86° East 253 291 3,800 1,200 Climbing FlightAware ADS-B
09:26PM -34.0269 151.3110 67° East 273 314 4,000 1,200 Climbing FlightAware ADS-B
09:26PM -34.0187 151.3223 49° Northeast 288 331 4,200 1,200 Climbing FlightAware ADS-B
09:26PM -34.0075 151.3317 35° Northeast 298 343 4,400 1,080 Climbing FlightAware ADS-B
09:27PM -33.9828 151.3505 32° Northeast 325 374 4,800 1,620 Climbing FlightAware ADS-B
09:27PM -33.9554 151.3715 32° Northeast 334 384 5,600 2,340 Climbing FlightAware ADS-B
09:27PM -33.9292 151.3917 33° Northeast 334 384 6,400 2,580 Climbing FlightAware ADS-B
09:28PM -33.9031 151.4150 36° Northeast 339 390 7,300 2,040 Climbing FlightAware ADS-B
09:28PM -33.8824 151.4416 47° Northeast 342 394 7,700 1,800 Climbing FlightAware ADS-B
09:28PM -33.8675 151.4648 52° Northeast 342 394 8,300 1,740 Climbing FlightAware ADS-B
09:28PM -33.8651 151.4684 52° Northeast 357 411 8,200 1,980 Descending FlightAware ADS-B (YRAY)
09:28PM -33.8590 151.4780 52° Northeast 342 394 8,600 2,400 Climbing FlightAware ADS-B
09:29PM -33.8419 151.5048 52° Northeast 367 422 9,100 2,040 Climbing FlightAware ADS-B
09:29PM -33.8173 151.5431 52° Northeast 374 430 10,000 1,920 Climbing FlightAware ADS-B
09:30PM -33.7825 151.5968 52° Northeast 388 447 10,900 2,100 Climbing FlightAware ADS-B
09:30PM -33.7483 151.6494 52° Northeast 392 451 12,200 2,460 Climbing FlightAware ADS-B
09:31PM -33.7122 151.7049 52° Northeast 395 455 13,500 2,280 Climbing FlightAware ADS-B
09:31PM -33.6642 151.7788 52° Northeast 410 472 15,100 2,340 Climbing FlightAware ADS-B
09:32PM -33.6167 151.8515 52° Northeast 412 474 16,700 2,400 Climbing FlightAware ADS-B
09:33PM -33.5720 151.9190 52° Northeast 418 481 18,200 2,520 Climbing FlightAware
09:33PM -33.5555 151.9450 53° Northeast 421 484 18,900 1,980 Climbing FlightAware ADS-B
09:34PM -33.5070 152.0180 51° Northeast 426 490 20,000 1,680 Climbing FlightAware
09:34PM -33.4688 152.0771 51° Northeast 434 499 20,900 1,860 Climbing Aus ATC (RADAR)
09:34PM -33.4640 152.0850 51° Northeast 439 505 21,100 2,220 Climbing FlightAware
09:35PM -33.4200 152.1520 52° Northeast 440 506 22,400 1,980 Climbing FlightAware
09:35PM -33.3760 152.2190 52° Northeast 444 511 23,500 1,800 Climbing FlightAware
09:36PM -33.3370 152.2780 52° Northeast 448 516 24,400 1,620 Climbing FlightAware
09:36PM -33.2850 152.3560 51° Northeast 452 520 25,400 1,260 Climbing FlightAware
09:37PM -33.2450 152.4160 51° Northeast 466 536 25,900 1,020 Climbing FlightAware
09:38PM -33.1900 152.4980 51° Northeast 476 548 26,600 1,020 Climbing FlightAware
09:38PM -33.1410 152.5710 51° Northeast 490 564 27,200 960 Climbing FlightAware
09:39PM -33.1020 152.6300 52° Northeast 495 570 27,700 1,020 Climbing FlightAware
09:39PM -33.0478 152.7117 52° Northeast 500 575 28,300 1,020 Climbing Aus ATC (RADAR)
09:39PM -33.0370 152.7280 52° Northeast 499 574 28,500 900 Climbing FlightAware
09:40PM -32.9821 152.8099 52° Northeast 509 586 29,000 840 Climbing Aus ATC (RADAR)
09:40PM -32.9830 152.8080 52° Northeast 506 582 29,000 480 Level FlightAware
09:41PM -32.9310 152.8860 52° Northeast 522 601 29,300 600 Climbing FlightAware
09:41PM -32.8830 152.9580 52° Northeast 526 605 29,700 840 Climbing FlightAware
09:42PM -32.8240 153.0450 52° Northeast 530 610 30,300 960 Climbing FlightAware
09:42PM -32.8206 153.0506 52° Northeast 521 600 30,300 660 Level Aus ATC (RADAR)
09:42PM -32.7690 153.1280 52° Northeast 543 625 30,700 660 Climbing FlightAware
09:43PM -32.7130 153.2100 51° Northeast 546 628 31,100 840 Climbing FlightAware
09:44PM -32.6461 153.3082 51° Northeast 540 621 31,800 1,080 Climbing Aus ATC (RADAR)
09:44PM -32.6370 153.3220 51° Northeast 551 634 32,000 1,260 Climbing FlightAware
09:44PM -32.5860 153.3960 51° Northeast 550 633 32,600 780 Climbing FlightAware
09:45PM -32.5230 153.4880 51° Northeast 553 636 33,000 300 Climbing FlightAware
09:46PM -32.4720 153.5630 51° Northeast 550 633 33,000  Level FlightAware
09:46PM -32.4090 153.6560 51° Northeast 549 632 33,000  Level FlightAware
09:47PM -32.3620 153.7240 51° Northeast 548 631 33,000  Level FlightAware
09:47PM -32.3080 153.8020 51° Northeast 547 629 33,000  Level FlightAware
09:48PM -32.2440 153.8950 51° Northeast 548 631 33,000  Level FlightAware
09:48PM -32.1870 153.9770 51° Northeast 556 640 33,000  Level FlightAware
09:49PM -32.1270 154.0640 51° Northeast 558 642 33,000  Level FlightAware
09:50PM -32.0790 154.1340 51° Northeast 558 642 33,000  Level FlightAware
09:50PM -32.0180 154.2210 50° Northeast 561 646 33,000  Level FlightAware
09:51PM -31.9460 154.3250 51° Northeast 564 649 33,000  Level FlightAware
09:52PM -31.8860 154.4110 51° Northeast 564 649 33,000  Level FlightAware
09:52PM -31.7960 154.5380 50° Northeast 568 654 33,000  Level FlightAware
09:53PM -31.7380 154.6200 50° Northeast 571 657 33,000  Level FlightAware
09:54PM -31.6780 154.7050 50° Northeast 572 658 33,000  Level FlightAware
09:54PM -31.6280 154.7770 51° Northeast 569 655 33,000  Level FlightAware
09:55PM -31.5570 154.8770 50° Northeast 568 654 33,000  Level FlightAware
09:55PM -31.5070 154.9470 50° Northeast 568 654 33,000 -120 Level FlightAware
09:56PM -31.4447 155.0348 50° Northeast 564 649 32,900  Descending Aus ATC (RADAR)
09:56PM -31.4370 155.0450 50° Northeast 569 655 33,000 120 Climbing FlightAware
09:57PM -31.3850 155.1180 50° Northeast 569 655 33,000  Level FlightAware
09:57PM -31.3340 155.1900 50° Northeast 569 655 33,000  Level FlightAware
09:58PM -31.2820 155.2620 50° Northeast 569 655 33,000  Level FlightAware
09:58PM -31.2300 155.3340 50° Northeast 569 655 33,000 -120 Level FlightAware
09:59PM -31.1214 155.4862 50° Northeast 549 632 32,900  Descending Aus ATC (RADAR)
09:59PM -31.1770 155.4080 50° Northeast 569 655 33,000  Climbing FlightAware
10:00PM -31.0617 155.5687 50° Northeast 550 633 32,900  Descending Aus ATC (RADAR)
10:00PM -31.1250 155.4810 50° Northeast 569 655 33,000 120 Climbing FlightAware
10:00PM -31.0730 155.5530 50° Northeast 569 655 33,000  Level FlightAware
10:01PM -31.0210 155.6250 50° Northeast 569 655 33,000  Level FlightAware
10:01PM -30.9700 155.6970 50° Northeast 569 655 33,000  Level FlightAware
10:02PM -30.9180 155.7690 50° Northeast 569 655 33,000  Level FlightAware
10:03PM -30.8660 155.8400 50° Northeast 569 655 33,000  Level FlightAware
10:03PM -30.8140 155.9120 50° Northeast 569 655 33,000  Level FlightAware
10:04PM -30.7620 155.9840 50° Northeast 569 655 33,000  Level FlightAware
10:04PM -30.7090 156.0580 50° Northeast 569 655 33,000  Level FlightAware
10:05PM -30.6570 156.1300 50° Northeast 569 655 33,000 -120 Level FlightAware
10:07PM -30.3316 156.5460 50° Northeast 567 652 32,800 -120 Descending Aus ATC (RADAR)
10:08PM -30.2094 156.7056 48° Northeast 566 651 32,800  Level Aus ATC (RADAR)
10:10PM -29.9927 156.9874 48° Northeast 562 647 32,800  Level Aus ATC (RADAR)
10:10PM -29.9576 157.0323 48° Northeast 563 648 32,800  Level Aus ATC (RADAR)
10:12PM -29.8180 157.2120 48° Northeast 562 647 32,800  Level Aus ATC (RADAR)
10:12PM -29.7923 157.2451 48° Northeast 560 644 32,800  Level Aus ATC (RADAR)
10:13PM -29.7003 157.3658 49° Northeast 549 632 32,800  Level Aus ATC (RADAR)
10:13PM -29.6752 157.3984 49° Northeast 546 628 32,800  Level Aus ATC (RADAR)
10:14PM -29.5766 157.5215 47° Northeast 559 643 32,800  Level Aus ATC (RADAR)
10:15PM -29.4952 157.6217 47° Northeast 566 651 32,800  Level Aus ATC (RADAR)
10:15PM -29.4343 157.6998 48° Northeast 563 648 32,800  Level Aus ATC (RADAR)
10:16PM -29.3388 157.8215 48° Northeast 559 643 32,800  Level Aus ATC (RADAR)
10:16PM -29.3214 157.8428 47° Northeast 560 644 32,800  Level Aus ATC (RADAR)
10:17PM -29.2561 157.9301 49° Northeast 571 657 32,800  Level Aus ATC (RADAR)
10:18PM -29.1581 158.0503 47° Northeast 570 656 32,800  Level Aus ATC (RADAR)
10:23PM -28.5943 158.7535 47° Northeast 35,000  Climbing Aus ATC (Calculated)
10:25PM -28.4135 158.9765 47° Northeast  Level FlightAware Approximate
10:26PM -28.3156 159.0967 47° Northeast  Level FlightAware Approximate
10:27PM -28.2176 159.2167 47° Northeast  Level FlightAware Approximate
10:27PM -28.2054 159.2313 47° Northeast 37,000  Level Aus ATC (Calculated)
10:28PM -28.3036 159.1115 227° Southwest  Level FlightAware Approximate
10:28PM -28.0581 159.4109 47° Northeast 37,000  Level Aus ATC (Calculated)
10:30PM -28.1808 159.2615 227° Southwest  Level FlightAware Approximate
10:31PM -28.2801 159.1402 227° Southwest  Level FlightAware Approximate
10:31PM -27.7735 159.7556 47° Northeast 37,000  Level Aus ATC (Calculated)
10:32PM -27.6443 159.9113 47° Northeast 37,000 -60 Level Aus ATC (Calculated)
10:33PM -27.9231 159.5748 227° Southwest  Level FlightAware Approximate
10:33PM -27.5620 160.0100 47° Northeast 37,000  Level Aus ATC (Calculated)
10:34PM -27.5103 160.0365 47° Northeast  Level Estimated
10:34PM -27.4026 160.2008 47° Northeast 37,000  Level Aus ATC (Calculated)
10:35PM -27.4228 160.1766 47° Northeast  Level FlightAware Approximate
10:36PM -27.2913 160.3333 47° Northeast  Level FlightAware Approximate
10:37PM -27.1916 160.4518 47° Northeast  Level FlightAware Approximate
10:37PM -27.0653 160.6015 46° Northeast 37,000  Level Aus ATC (Calculated)
10:37PM -27.0653 160.6015 46° Northeast 37,000 -60 Level Aus ATC (Calculated)
10:38PM -27.0918 160.5700 47° Northeast  Level FlightAware Approximate
10:39PM -26.9637 160.7214 46° Northeast  Level FlightAware Approximate
10:39PM -26.8068 160.9060 46° Northeast 37,000  Level Aus ATC (Calculated)
10:40PM -26.8636 160.8392 46° Northeast  Level FlightAware Approximate
10:41PM -26.7050 161.0254 46° Northeast  Level FlightAware Approximate
10:41PM -26.6936 161.0388 46° Northeast 37,000  Level Aus ATC (Calculated)
10:42PM -26.5933 161.1560 46° Northeast  Level FlightAware Approximate
10:42PM -26.5872 161.1630 46° Northeast 37,000  Level Aus ATC (Calculated)
10:43PM -26.4875 161.2793 46° Northeast 37,000 -120 Level Aus ATC (Calculated)
10:45PM -26.2898 161.5088 46° Northeast  Level FlightAware Approximate
10:46PM -26.1891 161.6252 46° Northeast  Level FlightAware Approximate
10:47PM -26.0884 161.7414 46° Northeast  Level FlightAware Approximate
10:48PM -25.9875 161.8574 46° Northeast  Level FlightAware Approximate
10:49PM -25.8866 161.9732 46° Northeast  Level FlightAware Approximate
10:50PM -25.7855 162.0888 46° Northeast  Level FlightAware Approximate
10:51PM -25.6844 162.2042 46° Northeast  Level FlightAware Approximate
10:52PM -25.5832 162.3194 46° Northeast  Level FlightAware Approximate
10:53PM -25.4818 162.4344 46° Northeast  Level FlightAware Approximate
10:53PM -25.3114 162.6273 46° Northeast 37,000  Level Aus ATC (Calculated)
10:54PM -25.2099 162.7417 46° Northeast  Level FlightAware Approximate
10:55PM -25.1082 162.8560 46° Northeast  Level FlightAware Approximate
10:56PM -25.0065 162.9702 45° Northeast  Level FlightAware Approximate
10:57PM -24.9047 163.0841 45° Northeast  Level FlightAware Approximate
10:58PM -25.0065 162.9702 225° Southwest  Level FlightAware Approximate
10:59PM -24.9047 163.0841 45° Northeast  Level FlightAware Approximate
11:00PM -25.0065 162.9702 225° Southwest  Level FlightAware Approximate
11:01PM -24.9047 163.0841 45° Northeast  Level FlightAware Approximate
11:02PM -25.0065 162.9702 225° Southwest  Level FlightAware Approximate
11:03PM -24.9047 163.0841 45° Northeast  Level FlightAware Approximate
11:04PM -25.0065 162.9702 225° Southwest  Level FlightAware Approximate
11:05PM -24.9047 163.0841 45° Northeast  Level FlightAware Approximate
11:06PM -25.0065 162.9702 225° Southwest  Level FlightAware Approximate
11:07PM -24.9362 163.0487 45° Northeast  Level FlightAware Approximate
11:08PM -24.8343 163.1624 45° Northeast  Level FlightAware Approximate
11:09PM -24.7322 163.2760 45° Northeast  Level FlightAware Approximate
11:10PM -24.6301 163.3893 45° Northeast  Level FlightAware Approximate
11:11PM -24.5279 163.5024 45° Northeast  Level FlightAware Approximate
11:12PM -24.4256 163.6154 45° Northeast  Level FlightAware Approximate
11:12PM -23.4150 164.7160 45° Northeast 537 618 35,000  Level FlightAware
11:13PM -24.3232 163.7281 45° Northeast  Level FlightAware Approximate
11:13PM -23.3510 164.7840 44° Northeast 537 618 35,000  Level FlightAware
11:13PM -23.2730 164.8690 45° Northeast 538 619 35,000  Level FlightAware
11:14PM -23.2140 164.9330 45° Northeast 536 617 35,000  Level FlightAware
11:15PM -23.1500 165.0010 44° Northeast 536 617 35,000  Level FlightAware
11:15PM -23.0900 165.0650 44° Northeast 536 617 35,000  Level FlightAware
11:16PM -23.0250 165.1350 45° Northeast 535 616 35,000  Level FlightAware
11:16PM -22.9600 165.2040 44° Northeast 534 615 35,000  Level FlightAware
11:17PM -22.9070 165.2610 45° Northeast 534 615 35,000  Level FlightAware
11:18PM -22.8410 165.3310 44° Northeast 534 615 35,000  Level FlightAware
11:18PM -22.7780 165.3980 44° Northeast 534 615 35,000  Level FlightAware
11:19PM -22.7130 165.4670 44° Northeast 534 615 35,000  Level FlightAware
11:19PM -22.6570 165.5270 45° Northeast 533 613 35,000  Level FlightAware
11:20PM -22.5890 165.5980 44° Northeast 533 613 35,000  Level FlightAware
11:20PM -22.5340 165.6570 45° Northeast 532 612 35,000  Level FlightAware
11:21PM -22.4700 165.7240 44° Northeast 531 611 35,000  Level FlightAware
11:22PM -22.4110 165.7860 44° Northeast 531 611 35,000  Level FlightAware
11:22PM -22.3510 165.8490 44° Northeast 531 611 35,000  Level FlightAware
11:23PM -22.2860 165.9180 44° Northeast 531 611 35,000  Level FlightAware
11:23PM -22.2210 165.9860 44° Northeast 531 611 35,000  Level FlightAware
11:24PM -22.1650 166.0450 44° Northeast 531 611 35,000  Level FlightAware
11:24PM -22.1010 166.1110 44° Northeast 531 611 35,000  Level FlightAware
11:25PM -22.0390 166.1760 44° Northeast 529 609 35,000  Level FlightAware
11:26PM -21.9640 166.2310 34° Northeast 522 601 35,000  Level FlightAware
11:26PM -21.8990 166.2630 25° Northeast 518 596 35,000  Level FlightAware
11:27PM -21.8150 166.3030 24° Northeast 518 596 35,000  Level FlightAware
11:27PM -21.7450 166.3370 24° Northeast 517 595 35,000  Level FlightAware
11:28PM -21.6630 166.3760 24° Northeast 516 594 35,000  Level FlightAware
11:29PM -21.5930 166.4090 24° Northeast 515 593 35,000  Level FlightAware
11:29PM -21.5070 166.4500 24° Northeast 514 592 35,000  Level FlightAware
11:30PM -21.4320 166.4860 24° Northeast 513 590 35,000  Level FlightAware
11:30PM -21.3570 166.5210 23° Northeast 512 589 35,000  Level FlightAware
11:31PM -21.2840 166.5560 24° Northeast 512 589 35,000  Level FlightAware
11:32PM -21.2050 166.5940 24° Northeast 511 588 35,000  Level FlightAware
11:32PM -21.1280 166.6300 24° Northeast 511 588 35,000  Level FlightAware
11:33PM -21.0600 166.6630 24° Northeast 510 587 35,000  Level FlightAware
11:33PM -20.9800 166.7010 24° Northeast 509 586 35,000  Level FlightAware
11:34PM -20.9030 166.7370 24° Northeast 509 586 35,000  Level FlightAware
11:35PM -20.7960 166.7880 24° Northeast 508 585 35,000  Level FlightAware
11:35PM -20.7200 166.8230 23° Northeast 508 585 35,000  Level FlightAware
11:36PM -20.6520 166.8560 24° Northeast 508 585 35,000  Level FlightAware
11:36PM -20.5730 166.8930 24° Northeast 506 582 35,000  Level FlightAware
11:37PM -20.5100 166.9220 23° Northeast 506 582 35,000  Level FlightAware
11:38PM -20.4440 166.9520 23° Northeast 506 582 35,000  Level FlightAware
11:38PM -20.3780 166.9810 22° Northeast 506 582 35,000  Level FlightAware
11:39PM -20.3110 167.0120 23° Northeast 506 582 35,000  Level FlightAware
11:39PM -20.2450 167.0420 23° Northeast 506 582 35,000  Level FlightAware
11:40PM -20.1790 167.0720 23° Northeast 506 582 35,000  Level FlightAware
11:41PM -20.1130 167.1020 23° Northeast 506 582 35,000  Level FlightAware
11:41PM -20.0470 167.1310 22° Northeast 506 582 35,000  Level FlightAware
11:42PM -19.9810 167.1610 23° Northeast 506 582 35,000  Level FlightAware
11:42PM -19.9150 167.1910 23° Northeast 506 582 35,000  Level FlightAware
11:43PM -19.8490 167.2210 23° Northeast 506 582 35,000  Level FlightAware
11:44PM -19.7830 167.2500 22° Northeast 506 582 35,000  Level FlightAware
11:44PM -19.7150 167.2810 23° Northeast 506 582 35,000  Level FlightAware
11:45PM -19.6480 167.3120 24° Northeast 506 582 35,000  Level FlightAware
11:45PM -19.5820 167.3410 22° Northeast 506 582 35,000  Level FlightAware
11:46PM -19.5160 167.3710 23° Northeast 506 582 35,000  Level FlightAware
11:49PM -19.1892 167.5382 24° Northeast  Level FlightAware Approximate
11:50PM -19.0564 167.5999 24° Northeast  Level FlightAware Approximate
11:51PM -18.9236 167.6616 24° Northeast  Level FlightAware Approximate
11:52PM -18.7908 167.7231 24° Northeast  Level FlightAware Approximate
11:53PM -18.6579 167.7845 24° Northeast  Level FlightAware Approximate
11:54PM -18.5251 167.8459 24° Northeast  Level FlightAware Approximate
11:55PM -18.3923 167.9074 24° Northeast  Level FlightAware Approximate
11:56PM -18.2595 167.9689 24° Northeast  Level FlightAware Approximate
11:57PM -18.1267 168.0302 24° Northeast  Level FlightAware Approximate
11:58PM -17.9939 168.0914 24° Northeast  Level FlightAware Approximate
11:59PM -17.8610 168.1526 24° Northeast  Level FlightAware Approximate
12:00AM -17.7282 168.2136 24° Northeast  Level FlightAware Approximate
12:01AM -17.6954 168.3121 117° Southeast  Level FlightAware Approximate
12:02AM -17.6991 168.3198 117° Southeast  Level FlightAware Approximate
12:03AM -17.6993 168.3198 117° Southeast  Level Estimated
12:04AM -17.6991 168.3198 117° Southeast  Level FlightAware Approximate
12:05AM -17.6993 168.3198 117° Southeast  Level Estimated
12:06AM -17.6991 168.3198 117° Southeast  Level FlightAware Approximate
12:07AM -17.6993 168.3198 117° Southeast  Level Estimated
12:08AM -17.6991 168.3198 117° Southeast  Level FlightAware Approximate
12:09AM -17.6993 168.3198 117° Southeast  Level Estimated
12:10AM -17.6991 168.3198 117° Southeast  Level FlightAware Approximate
12:11AM -17.6993 168.3198 117° Southeast  Level Estimated
12:12AM -17.6991 168.3198 117° Southeast  Level FlightAware Approximate
12:13AM -17.6993 168.3198 117° Southeast  Level Estimated
12:14AM -17.6991 168.3198 117° Southeast  Level FlightAware Approximate
12:15AM -17.6993 168.3198 117° Southeast  Level Estimated
12:16AM -17.6991 168.3198 117° Southeast  Level FlightAware Approximate
12:17AM -17.6993 168.3198 117° Southeast  Level Estimated
12:18AM -17.6991 168.3198 117° Southeast  Level FlightAware Approximate
12:19AM -17.6993 168.3198 117° Southeast  Level Estimated